Daufuskie Island, SC (29915)

2:48 PM EDT on September 04, 2015 (GMT -0400)
Betz Creek Plantation | | Change Station
CLOSE
Current Station
Personal Weather Station
Location: Savannah, GA
Elevation: 16 ft
Nearby Weather Stations

Elev 16 ft 32.02 °N, 80.96 °W | Updated 4 seconds ago

Partly Cloudy
Partly Cloudy
87.3 °F
Feels Like 90 °F
N
0.0
Wind Variable Wind from North
Gusts 5.1 mph

Today
High -- | Low -- °F
--% Chance of Precip.
Yesterday
High -- | Low -- °F
Precip. -- in
7:00 AM 7:44 PM
Waning Gibbous, 57% visible
Pressure 29.98 in
Visibility 10.0 miles
Clouds Scattered Clouds 3500 ft
Heat Index 90 °F
Dew Point 67 °F
Humidity 51%
Rainfall 0.00 in
Snow Depth Not available.
UV 10 out of 12
Pollen 6.80 out of 12
Air Quality Not available.
Flu Activity Not available.
METAR KHXD 041750Z 08005KT 10SM SCT035 32/26 A2998
Pressure 29.98 in
Visibility 10.0 miles
Clouds Scattered Clouds 3500 ft
Heat Index 90 °F
Dew Point 67 °F
Humidity 51%
Rainfall 0.00 in
Snow Depth Not available.
UV 10 out of 12
Pollen 6.80 out of 12
Air Quality Not available.
Flu Activity Not available.
METAR KHXD 041750Z 08005KT 10SM SCT035 32/26 A2998

10-Day Weather Forecast

×

Almanac

Astronomy

Sep. 04, 2015 Rise Set
Actual Time
Civil Twilight
Nautical Twilight
Astronomical Twilight
Moon
Length of Visible Light
Length of Day
Tomorrow will be .
, % of the Moon is Illuminated

Today's Extremes

State Highs State Lows

Community

WunderPhotos

Upload Photos

1,852,262 photos uploaded!

WunderBlogs® & News

Nearby

Air Quality

  Air Quality AQ Index Pollutant
Not available.

Snow Depth

Station Depth Elevation

Earthquake Activity

City Distance Mag. Time & Date
Minimum magnitude displayed is 2.5.

Coastal Water Temperatures

Place Temperature

Stations

Nearby Weather Stations

Station Location Temp. Windchill Dew Point Humidity Wind Precip. Elev Updated Type